<?xml version="1.0" encoding="UTF-8" standalone="no" ?>
<gpx xmlns="http://www.topografix.com/GPX/1/1" xmlns:xsi="http://www.w3.org/2001/XMLSchema-instance" xsi:schemaLocation="http://www.topografix.com/GPX/1/1 http://www.topografix.com/GPX/1/1/gpx.xsd" version="1.1" creator="VisuGPX - https://www.visugpx.com">
  <metadata>
    <name>Boucle Saint-Aubin</name>
    <desc><![CDATA[Une partie du tracés sans balise.
Chemins balisés CCE Estuaire/Département
Balisage vert]]></desc>
  </metadata>
  <wpt lat="45.26547" lon="-0.55374">
    <ele>12.4</ele>
    <name><![CDATA[Vitrezay / Saint-Aubin ]]></name>
    <desc><![CDATA[Section commune entre tour du Vitrezay et boucle de Saint-Aubin
Altitude: 56 m]]></desc>
  </wpt>
  <wpt lat="45.27169" lon="-0.55964">
    <ele>21.8</ele>
    <name><![CDATA[Vitrezay / Saint-Aubin ]]></name>
    <desc><![CDATA[Section commune entre tour du Vitrezay et boucle de Saint-Aubin
Altitude: 65 m]]></desc>
  </wpt>
  <wpt lat="45.27369" lon="-0.57761">
    <ele>26</ele>
    <name><![CDATA[Boucle Saint-Aubin ]]></name>
    <desc><![CDATA[Vitesse: 0 km/h
Altitude: 74 m]]></desc>
  </wpt>
  <wpt lat="45.27369" lon="-0.57761">
    <ele>26</ele>
    <name><![CDATA[Boucle Saint-Aubin ]]></name>
    <desc><![CDATA[Vitesse: 0 km/h
Altitude: 74 m]]></desc>
  </wpt>
  <trk>
    <name><![CDATA[Boucle Arboretum St-Aubin]]></name>
    <extensions>
      <line xmlns="http://www.topografix.com/GPX/gpx_style/0/2">
        <color>088104</color>
        <width>4</width>
      </line>
    </extensions>
    <trkseg>
      <trkpt lat="45.26304" lon="-0.55995">
        <ele>62.25</ele>
        <time>2021-06-19T09:57:29.000Z</time>
      </trkpt>
      <trkpt lat="45.26304" lon="-0.55995">
        <ele>62.25</ele>
        <time>2021-06-19T09:57:29.000Z</time>
      </trkpt>
      <trkpt lat="45.26304" lon="-0.55995">
        <ele>62.25</ele>
        <time>2021-06-19T09:57:29.000Z</time>
      </trkpt>
      <trkpt lat="45.26304" lon="-0.55995">
        <ele>62.25</ele>
        <time>2021-06-19T09:57:29.000Z</time>
      </trkpt>
      <trkpt lat="45.26304" lon="-0.55995">
        <ele>62.25</ele>
        <time>2021-06-19T09:57:29.000Z</time>
      </trkpt>
      <trkpt lat="45.26301" lon="-0.55981">
        <ele>62.24</ele>
        <time>2021-06-19T09:57:47.000Z</time>
      </trkpt>
      <trkpt lat="45.26294" lon="-0.55972">
        <ele>62.23</ele>
        <time>2021-06-19T09:57:49.000Z</time>
      </trkpt>
      <trkpt lat="45.26286" lon="-0.55964">
        <ele>61.37</ele>
        <time>2021-06-19T09:57:51.000Z</time>
      </trkpt>
      <trkpt lat="45.26277" lon="-0.55955">
        <ele>60.53</ele>
        <time>2021-06-19T09:57:53.000Z</time>
      </trkpt>
      <trkpt lat="45.26266" lon="-0.55952">
        <ele>59.69</ele>
        <time>2021-06-19T09:57:55.000Z</time>
      </trkpt>
      <trkpt lat="45.26255" lon="-0.5595">
        <ele>59.07</ele>
        <time>2021-06-19T09:57:57.000Z</time>
      </trkpt>
      <trkpt lat="45.26247" lon="-0.55939">
        <ele>59.34</ele>
        <time>2021-06-19T09:57:59.000Z</time>
      </trkpt>
      <trkpt lat="45.2624" lon="-0.55927">
        <ele>59.67</ele>
        <time>2021-06-19T09:58:01.000Z</time>
      </trkpt>
      <trkpt lat="45.26232" lon="-0.55913">
        <ele>59.15</ele>
        <time>2021-06-19T09:58:03.000Z</time>
      </trkpt>
      <trkpt lat="45.26225" lon="-0.55898">
        <ele>59.42</ele>
        <time>2021-06-19T09:58:05.000Z</time>
      </trkpt>
      <trkpt lat="45.26217" lon="-0.55883">
        <ele>58.92</ele>
        <time>2021-06-19T09:58:07.000Z</time>
      </trkpt>
      <trkpt lat="45.26209" lon="-0.5587">
        <ele>57.47</ele>
        <time>2021-06-19T09:58:09.000Z</time>
      </trkpt>
      <trkpt lat="45.26199" lon="-0.55859">
        <ele>57.15</ele>
        <time>2021-06-19T09:58:11.000Z</time>
      </trkpt>
      <trkpt lat="45.26187" lon="-0.55851">
        <ele>57.36</ele>
        <time>2021-06-19T09:58:13.000Z</time>
      </trkpt>
      <trkpt lat="45.26176" lon="-0.55845">
        <ele>57.84</ele>
        <time>2021-06-19T09:58:15.000Z</time>
      </trkpt>
      <trkpt lat="45.26158" lon="-0.55837">
        <ele>58.21</ele>
        <time>2021-06-19T09:58:18.000Z</time>
      </trkpt>
      <trkpt lat="45.26146" lon="-0.55831">
        <ele>58.03</ele>
        <time>2021-06-19T09:58:20.000Z</time>
      </trkpt>
      <trkpt lat="45.26134" lon="-0.55825">
        <ele>58.15</ele>
        <time>2021-06-19T09:58:22.000Z</time>
      </trkpt>
      <trkpt lat="45.26122" lon="-0.55819">
        <ele>59.61</ele>
        <time>2021-06-19T09:58:24.000Z</time>
      </trkpt>
      <trkpt lat="45.26104" lon="-0.5581">
        <ele>59.51</ele>
        <time>2021-06-19T09:58:27.000Z</time>
      </trkpt>
      <trkpt lat="45.26093" lon="-0.55805">
        <ele>59.58</ele>
        <time>2021-06-19T09:58:29.000Z</time>
      </trkpt>
      <trkpt lat="45.26081" lon="-0.55798">
        <ele>60.08</ele>
        <time>2021-06-19T09:58:31.000Z</time>
      </trkpt>
      <trkpt lat="45.26069" lon="-0.55793">
        <ele>59.88</ele>
        <time>2021-06-19T09:58:33.000Z</time>
      </trkpt>
      <trkpt lat="45.26057" lon="-0.55787">
        <ele>60.1</ele>
        <time>2021-06-19T09:58:35.000Z</time>
      </trkpt>
      <trkpt lat="45.26047" lon="-0.55782">
        <ele>59.95</ele>
        <time>2021-06-19T09:58:37.000Z</time>
      </trkpt>
      <trkpt lat="45.26037" lon="-0.55774">
        <ele>58.98</ele>
        <time>2021-06-19T09:58:39.000Z</time>
      </trkpt>
      <trkpt lat="45.26027" lon="-0.55768">
        <ele>57.68</ele>
        <time>2021-06-19T09:58:41.000Z</time>
      </trkpt>
      <trkpt lat="45.26018" lon="-0.55759">
        <ele>56.89</ele>
        <time>2021-06-19T09:58:43.000Z</time>
      </trkpt>
      <trkpt lat="45.26005" lon="-0.5574">
        <ele>57.67</ele>
        <time>2021-06-19T09:58:46.000Z</time>
      </trkpt>
      <trkpt lat="45.25997" lon="-0.55729">
        <ele>58.49</ele>
        <time>2021-06-19T09:58:48.000Z</time>
      </trkpt>
      <trkpt lat="45.25987" lon="-0.55719">
        <ele>58.42</ele>
        <time>2021-06-19T09:58:50.000Z</time>
      </trkpt>
      <trkpt lat="45.25978" lon="-0.5571">
        <ele>59</ele>
        <time>2021-06-19T09:58:52.000Z</time>
      </trkpt>
      <trkpt lat="45.25969" lon="-0.557">
        <ele>59.64</ele>
        <time>2021-06-19T09:58:54.000Z</time>
      </trkpt>
      <trkpt lat="45.25959" lon="-0.55689">
        <ele>60.46</ele>
        <time>2021-06-19T09:58:56.000Z</time>
      </trkpt>
      <trkpt lat="45.25949" lon="-0.5568">
        <ele>60.7</ele>
        <time>2021-06-19T09:58:58.000Z</time>
      </trkpt>
      <trkpt lat="45.25935" lon="-0.55666">
        <ele>59.87</ele>
        <time>2021-06-19T09:59:01.000Z</time>
      </trkpt>
      <trkpt lat="45.25925" lon="-0.55657">
        <ele>60.65</ele>
        <time>2021-06-19T09:59:03.000Z</time>
      </trkpt>
      <trkpt lat="45.25917" lon="-0.55648">
        <ele>60.49</ele>
        <time>2021-06-19T09:59:05.000Z</time>
      </trkpt>
      <trkpt lat="45.25908" lon="-0.55638">
        <ele>59.92</ele>
        <time>2021-06-19T09:59:07.000Z</time>
      </trkpt>
      <trkpt lat="45.25898" lon="-0.55627">
        <ele>59.62</ele>
        <time>2021-06-19T09:59:09.000Z</time>
      </trkpt>
      <trkpt lat="45.25889" lon="-0.55618">
        <ele>59.29</ele>
        <time>2021-06-19T09:59:11.000Z</time>
      </trkpt>
      <trkpt lat="45.25879" lon="-0.5561">
        <ele>58.18</ele>
        <time>2021-06-19T09:59:13.000Z</time>
      </trkpt>
      <trkpt lat="45.25869" lon="-0.556">
        <ele>58.19</ele>
        <time>2021-06-19T09:59:15.000Z</time>
      </trkpt>
      <trkpt lat="45.2586" lon="-0.55589">
        <ele>58.51</ele>
        <time>2021-06-19T09:59:17.000Z</time>
      </trkpt>
      <trkpt lat="45.2585" lon="-0.5558">
        <ele>59.59</ele>
        <time>2021-06-19T09:59:19.000Z</time>
      </trkpt>
      <trkpt lat="45.25826" lon="-0.55592">
        <ele>15.8</ele>
        <time>2021-06-19T09:59:22.000Z</time>
      </trkpt>
      <trkpt lat="45.25832" lon="-0.55566">
        <ele>16.4</ele>
        <time>2021-06-19T09:59:25.000Z</time>
      </trkpt>
      <trkpt lat="45.25857" lon="-0.55544">
        <ele>17.5</ele>
        <time>2021-06-19T09:59:28.000Z</time>
      </trkpt>
      <trkpt lat="45.25872" lon="-0.5554">
        <ele>59.45</ele>
        <time>2021-06-19T09:59:31.000Z</time>
      </trkpt>
      <trkpt lat="45.25882" lon="-0.55529">
        <ele>59.86</ele>
        <time>2021-06-19T09:59:34.000Z</time>
      </trkpt>
      <trkpt lat="45.2589" lon="-0.55521">
        <ele>60.22</ele>
        <time>2021-06-19T09:59:36.000Z</time>
      </trkpt>
      <trkpt lat="45.25897" lon="-0.55512">
        <ele>59.42</ele>
        <time>2021-06-19T09:59:38.000Z</time>
      </trkpt>
      <trkpt lat="45.25906" lon="-0.55503">
        <ele>60.29</ele>
        <time>2021-06-19T09:59:40.000Z</time>
      </trkpt>
      <trkpt lat="45.25914" lon="-0.55495">
        <ele>58.43</ele>
        <time>2021-06-19T09:59:42.000Z</time>
      </trkpt>
      <trkpt lat="45.25922" lon="-0.55486">
        <ele>57.79</ele>
        <time>2021-06-19T09:59:44.000Z</time>
      </trkpt>
      <trkpt lat="45.2593" lon="-0.55476">
        <ele>56.4</ele>
        <time>2021-06-19T09:59:46.000Z</time>
      </trkpt>
      <trkpt lat="45.25939" lon="-0.55467">
        <ele>56.41</ele>
        <time>2021-06-19T09:59:48.000Z</time>
      </trkpt>
      <trkpt lat="45.25948" lon="-0.55457">
        <ele>56.83</ele>
        <time>2021-06-19T09:59:50.000Z</time>
      </trkpt>
      <trkpt lat="45.25957" lon="-0.55448">
        <ele>57.16</ele>
        <time>2021-06-19T09:59:52.000Z</time>
      </trkpt>
      <trkpt lat="45.25962" lon="-0.55462">
        <ele>59.24</ele>
        <time>2021-06-19T10:02:51.000Z</time>
      </trkpt>
      <trkpt lat="45.25972" lon="-0.5546">
        <ele>60.53</ele>
        <time>2021-06-19T10:02:55.000Z</time>
      </trkpt>
      <trkpt lat="45.25982" lon="-0.55459">
        <ele>61.18</ele>
        <time>2021-06-19T10:03:00.000Z</time>
      </trkpt>
      <trkpt lat="45.25993" lon="-0.55459">
        <ele>60.64</ele>
        <time>2021-06-19T10:03:04.000Z</time>
      </trkpt>
      <trkpt lat="45.26002" lon="-0.55459">
        <ele>59.55</ele>
        <time>2021-06-19T10:03:07.000Z</time>
      </trkpt>
      <trkpt lat="45.26013" lon="-0.55461">
        <ele>59.93</ele>
        <time>2021-06-19T10:03:10.000Z</time>
      </trkpt>
      <trkpt lat="45.26022" lon="-0.5547">
        <ele>59.57</ele>
        <time>2021-06-19T10:03:13.000Z</time>
      </trkpt>
      <trkpt lat="45.26029" lon="-0.55479">
        <ele>59.62</ele>
        <time>2021-06-19T10:03:16.000Z</time>
      </trkpt>
      <trkpt lat="45.26037" lon="-0.55488">
        <ele>58.46</ele>
        <time>2021-06-19T10:03:19.000Z</time>
      </trkpt>
      <trkpt lat="45.26044" lon="-0.55498">
        <ele>60.35</ele>
        <time>2021-06-19T10:03:22.000Z</time>
      </trkpt>
      <trkpt lat="45.26053" lon="-0.55506">
        <ele>61.13</ele>
        <time>2021-06-19T10:03:25.000Z</time>
      </trkpt>
      <trkpt lat="45.26061" lon="-0.55515">
        <ele>61.35</ele>
        <time>2021-06-19T10:03:28.000Z</time>
      </trkpt>
      <trkpt lat="45.26069" lon="-0.55521">
        <ele>62</ele>
        <time>2021-06-19T10:03:31.000Z</time>
      </trkpt>
      <trkpt lat="45.26079" lon="-0.55529">
        <ele>61.97</ele>
        <time>2021-06-19T10:03:35.000Z</time>
      </trkpt>
      <trkpt lat="45.26085" lon="-0.55538">
        <ele>61.36</ele>
        <time>2021-06-19T10:03:38.000Z</time>
      </trkpt>
      <trkpt lat="45.26093" lon="-0.55549">
        <ele>61.48</ele>
        <time>2021-06-19T10:03:41.000Z</time>
      </trkpt>
      <trkpt lat="45.26101" lon="-0.55558">
        <ele>62.08</ele>
        <time>2021-06-19T10:03:45.000Z</time>
      </trkpt>
      <trkpt lat="45.26105" lon="-0.55573">
        <ele>61.83</ele>
        <time>2021-06-19T10:03:49.000Z</time>
      </trkpt>
      <trkpt lat="45.26103" lon="-0.55587">
        <ele>60.35</ele>
        <time>2021-06-19T10:03:52.000Z</time>
      </trkpt>
      <trkpt lat="45.26095" lon="-0.55598">
        <ele>59.83</ele>
        <time>2021-06-19T10:03:56.000Z</time>
      </trkpt>
      <trkpt lat="45.26086" lon="-0.5561">
        <ele>58.37</ele>
        <time>2021-06-19T10:04:00.000Z</time>
      </trkpt>
      <trkpt lat="45.26081" lon="-0.55623">
        <ele>60.03</ele>
        <time>2021-06-19T10:04:03.000Z</time>
      </trkpt>
      <trkpt lat="45.26079" lon="-0.55635">
        <ele>59.92</ele>
        <time>2021-06-19T10:04:06.000Z</time>
      </trkpt>
      <trkpt lat="45.26077" lon="-0.55651">
        <ele>59.46</ele>
        <time>2021-06-19T10:04:09.000Z</time>
      </trkpt>
      <trkpt lat="45.26077" lon="-0.55664">
        <ele>58.65</ele>
        <time>2021-06-19T10:04:11.000Z</time>
      </trkpt>
      <trkpt lat="45.26072" lon="-0.5568">
        <ele>58.51</ele>
        <time>2021-06-19T10:04:14.000Z</time>
      </trkpt>
      <trkpt lat="45.26065" lon="-0.55695">
        <ele>59.44</ele>
        <time>2021-06-19T10:04:17.000Z</time>
      </trkpt>
      <trkpt lat="45.2606" lon="-0.55708">
        <ele>58.54</ele>
        <time>2021-06-19T10:04:20.000Z</time>
      </trkpt>
      <trkpt lat="45.26055" lon="-0.55722">
        <ele>58.26</ele>
        <time>2021-06-19T10:04:23.000Z</time>
      </trkpt>
      <trkpt lat="45.26052" lon="-0.55738">
        <ele>58.13</ele>
        <time>2021-06-19T10:04:26.000Z</time>
      </trkpt>
      <trkpt lat="45.26049" lon="-0.55755">
        <ele>57.82</ele>
        <time>2021-06-19T10:04:29.000Z</time>
      </trkpt>
      <trkpt lat="45.26049" lon="-0.55769">
        <ele>57.36</ele>
        <time>2021-06-19T10:04:32.000Z</time>
      </trkpt>
      <trkpt lat="45.26051" lon="-0.55782">
        <ele>57.69</ele>
        <time>2021-06-19T10:04:36.000Z</time>
      </trkpt>
      <trkpt lat="45.26058" lon="-0.55791">
        <ele>57.28</ele>
        <time>2021-06-19T10:04:45.000Z</time>
      </trkpt>
      <trkpt lat="45.26101" lon="-0.55814">
        <ele>9.6</ele>
      </trkpt>
      <trkpt lat="45.2619" lon="-0.5585">
        <ele>11</ele>
      </trkpt>
      <trkpt lat="45.26215" lon="-0.55879">
        <ele>12</ele>
      </trkpt>
      <trkpt lat="45.26239" lon="-0.55928">
        <ele>13</ele>
      </trkpt>
      <trkpt lat="45.26255" lon="-0.55953">
        <ele>14.1</ele>
      </trkpt>
      <trkpt lat="45.26268" lon="-0.55952">
        <ele>14.7</ele>
      </trkpt>
      <trkpt lat="45.26273" lon="-0.55954">
        <ele>15</ele>
      </trkpt>
      <trkpt lat="45.26292" lon="-0.55974">
        <ele>16.4</ele>
      </trkpt>
      <trkpt lat="45.26297" lon="-0.55979">
        <ele>16.8</ele>
      </trkpt>
    </trkseg>
  </trk>
  <trk>
    <name><![CDATA[Boucle Saint Aubin]]></name>
    <extensions>
      <line xmlns="http://www.topografix.com/GPX/gpx_style/0/2">
        <color>288307</color>
        <width>4</width>
      </line>
    </extensions>
    <trkseg>
      <trkpt lat="45.2705" lon="-0.59048">
        <ele>18.2</ele>
      </trkpt>
      <trkpt lat="45.2705" lon="-0.59048">
        <ele>18.2</ele>
      </trkpt>
      <trkpt lat="45.2705" lon="-0.59048">
        <ele>18.2</ele>
      </trkpt>
      <trkpt lat="45.27027" lon="-0.59071">
        <ele>18.6</ele>
      </trkpt>
      <trkpt lat="45.2702" lon="-0.59069">
        <ele>18.6</ele>
      </trkpt>
      <trkpt lat="45.27" lon="-0.59037">
        <ele>18.4</ele>
      </trkpt>
      <trkpt lat="45.2698" lon="-0.58988">
        <ele>18.3</ele>
      </trkpt>
      <trkpt lat="45.26952" lon="-0.58972">
        <ele>18.8</ele>
      </trkpt>
      <trkpt lat="45.26902" lon="-0.58995">
        <ele>19</ele>
      </trkpt>
      <trkpt lat="45.26857" lon="-0.59014">
        <ele>19.1</ele>
      </trkpt>
      <trkpt lat="45.26819" lon="-0.59019">
        <ele>19.1</ele>
      </trkpt>
      <trkpt lat="45.26776" lon="-0.59021">
        <ele>18.6</ele>
      </trkpt>
      <trkpt lat="45.26655" lon="-0.59076">
        <ele>20.1</ele>
      </trkpt>
      <trkpt lat="45.26618" lon="-0.59084">
        <ele>20.6</ele>
      </trkpt>
      <trkpt lat="45.26565" lon="-0.59095">
        <ele>20.3</ele>
      </trkpt>
      <trkpt lat="45.26523" lon="-0.59109">
        <ele>19.4</ele>
      </trkpt>
      <trkpt lat="45.26496" lon="-0.59128">
        <ele>19.1</ele>
      </trkpt>
      <trkpt lat="45.26473" lon="-0.59154">
        <ele>19.9</ele>
      </trkpt>
      <trkpt lat="45.26451" lon="-0.59183">
        <ele>21.1</ele>
      </trkpt>
      <trkpt lat="45.2642" lon="-0.59207">
        <ele>22.4</ele>
      </trkpt>
      <trkpt lat="45.26386" lon="-0.59205">
        <ele>22.7</ele>
      </trkpt>
      <trkpt lat="45.2636" lon="-0.59195">
        <ele>22.8</ele>
      </trkpt>
      <trkpt lat="45.26334" lon="-0.59157">
        <ele>22.9</ele>
      </trkpt>
      <trkpt lat="45.26318" lon="-0.59128">
        <ele>22.7</ele>
      </trkpt>
      <trkpt lat="45.26298" lon="-0.59076">
        <ele>22.3</ele>
      </trkpt>
      <trkpt lat="45.26284" lon="-0.59032">
        <ele>22</ele>
      </trkpt>
      <trkpt lat="45.26272" lon="-0.59009">
        <ele>21.8</ele>
      </trkpt>
      <trkpt lat="45.26261" lon="-0.58986">
        <ele>22</ele>
      </trkpt>
      <trkpt lat="45.2625" lon="-0.58976">
        <ele>22.3</ele>
      </trkpt>
      <trkpt lat="45.26238" lon="-0.58979">
        <ele>22.5</ele>
      </trkpt>
      <trkpt lat="45.26231" lon="-0.58986">
        <ele>22.6</ele>
      </trkpt>
      <trkpt lat="45.26219" lon="-0.58997">
        <ele>22.8</ele>
      </trkpt>
      <trkpt lat="45.26208" lon="-0.58999">
        <ele>23</ele>
      </trkpt>
      <trkpt lat="45.26201" lon="-0.58986">
        <ele>23.2</ele>
      </trkpt>
      <trkpt lat="45.26182" lon="-0.58945">
        <ele>23.2</ele>
      </trkpt>
      <trkpt lat="45.26159" lon="-0.58894">
        <ele>22.7</ele>
      </trkpt>
      <trkpt lat="45.26129" lon="-0.58836">
        <ele>22.4</ele>
      </trkpt>
      <trkpt lat="45.26051" lon="-0.58706">
        <ele>22.5</ele>
      </trkpt>
      <trkpt lat="45.26009" lon="-0.58641">
        <ele>20.8</ele>
      </trkpt>
      <trkpt lat="45.25976" lon="-0.58611">
        <ele>21</ele>
      </trkpt>
      <trkpt lat="45.25981" lon="-0.58577">
        <ele>20.6</ele>
      </trkpt>
      <trkpt lat="45.2598" lon="-0.58576">
        <ele>20.6</ele>
      </trkpt>
      <trkpt lat="45.25962" lon="-0.58565">
        <ele>21.2</ele>
      </trkpt>
      <trkpt lat="45.25951" lon="-0.58557">
        <ele>21.4</ele>
      </trkpt>
      <trkpt lat="45.25923" lon="-0.58507">
        <ele>22</ele>
      </trkpt>
      <trkpt lat="45.25809" lon="-0.58388">
        <ele>20.8</ele>
      </trkpt>
      <trkpt lat="45.25691" lon="-0.58252">
        <ele>19.7</ele>
      </trkpt>
      <trkpt lat="45.25684" lon="-0.5824">
        <ele>19.6</ele>
      </trkpt>
      <trkpt lat="45.25696" lon="-0.58147">
        <ele>18.4</ele>
      </trkpt>
      <trkpt lat="45.25697" lon="-0.58121">
        <ele>18.4</ele>
      </trkpt>
      <trkpt lat="45.25695" lon="-0.58098">
        <ele>18.3</ele>
      </trkpt>
      <trkpt lat="45.25696" lon="-0.58071">
        <ele>18.4</ele>
      </trkpt>
      <trkpt lat="45.25704" lon="-0.58045">
        <ele>18.4</ele>
      </trkpt>
      <trkpt lat="45.25705" lon="-0.58021">
        <ele>18.5</ele>
      </trkpt>
      <trkpt lat="45.25701" lon="-0.58004">
        <ele>18.4</ele>
      </trkpt>
      <trkpt lat="45.25676" lon="-0.57954">
        <ele>18.1</ele>
      </trkpt>
      <trkpt lat="45.25652" lon="-0.57915">
        <ele>17.8</ele>
      </trkpt>
      <trkpt lat="45.25599" lon="-0.57856">
        <ele>16.5</ele>
      </trkpt>
      <trkpt lat="45.25583" lon="-0.57831">
        <ele>16</ele>
      </trkpt>
      <trkpt lat="45.25588" lon="-0.57822">
        <ele>15.9</ele>
      </trkpt>
      <trkpt lat="45.25715" lon="-0.57576">
        <ele>19.2</ele>
      </trkpt>
      <trkpt lat="45.25765" lon="-0.57507">
        <ele>20.7</ele>
      </trkpt>
      <trkpt lat="45.258" lon="-0.57457">
        <ele>22.3</ele>
      </trkpt>
      <trkpt lat="45.258" lon="-0.57457">
        <ele>22.3</ele>
      </trkpt>
      <trkpt lat="45.25806" lon="-0.5745">
        <ele>22.5</ele>
      </trkpt>
      <trkpt lat="45.25858" lon="-0.57386">
        <ele>23.7</ele>
      </trkpt>
      <trkpt lat="45.25872" lon="-0.5737">
        <ele>23.9</ele>
      </trkpt>
      <trkpt lat="45.25906" lon="-0.57361">
        <ele>24.5</ele>
      </trkpt>
      <trkpt lat="45.25935" lon="-0.5733">
        <ele>24.2</ele>
      </trkpt>
      <trkpt lat="45.25966" lon="-0.57284">
        <ele>24.4</ele>
      </trkpt>
      <trkpt lat="45.25983" lon="-0.5727">
        <ele>24.6</ele>
      </trkpt>
      <trkpt lat="45.26014" lon="-0.57255">
        <ele>25.7</ele>
      </trkpt>
      <trkpt lat="45.26072" lon="-0.57235">
        <ele>27.8</ele>
      </trkpt>
      <trkpt lat="45.26083" lon="-0.57227">
        <ele>27.9</ele>
      </trkpt>
      <trkpt lat="45.26084" lon="-0.57217">
        <ele>27.4</ele>
      </trkpt>
      <trkpt lat="45.26084" lon="-0.57217">
        <ele>27.4</ele>
      </trkpt>
      <trkpt lat="45.26112" lon="-0.57204">
        <ele>27.3</ele>
      </trkpt>
      <trkpt lat="45.2612" lon="-0.57199">
        <ele>27.3</ele>
      </trkpt>
      <trkpt lat="45.26131" lon="-0.57186">
        <ele>26.9</ele>
      </trkpt>
      <trkpt lat="45.26134" lon="-0.57113">
        <ele>25.4</ele>
      </trkpt>
      <trkpt lat="45.26147" lon="-0.57055">
        <ele>24.7</ele>
      </trkpt>
      <trkpt lat="45.26161" lon="-0.57032">
        <ele>24.4</ele>
      </trkpt>
      <trkpt lat="45.26187" lon="-0.57025">
        <ele>24.1</ele>
      </trkpt>
      <trkpt lat="45.26228" lon="-0.57032">
        <ele>23.9</ele>
      </trkpt>
      <trkpt lat="45.26248" lon="-0.57007">
        <ele>23.2</ele>
      </trkpt>
      <trkpt lat="45.26335" lon="-0.56823">
        <ele>23.1</ele>
      </trkpt>
      <trkpt lat="45.26337" lon="-0.56808">
        <ele>23.1</ele>
      </trkpt>
      <trkpt lat="45.26335" lon="-0.56796">
        <ele>23.1</ele>
      </trkpt>
      <trkpt lat="45.26292" lon="-0.56729">
        <ele>21.5</ele>
      </trkpt>
      <trkpt lat="45.26288" lon="-0.56719">
        <ele>21.4</ele>
      </trkpt>
      <trkpt lat="45.26286" lon="-0.56705">
        <ele>21.3</ele>
      </trkpt>
      <trkpt lat="45.26293" lon="-0.56692">
        <ele>21.5</ele>
      </trkpt>
      <trkpt lat="45.2641" lon="-0.56495">
        <ele>22.8</ele>
      </trkpt>
      <trkpt lat="45.26394" lon="-0.56481">
        <ele>22.5</ele>
      </trkpt>
      <trkpt lat="45.26264" lon="-0.56352">
        <ele>19.6</ele>
      </trkpt>
      <trkpt lat="45.26228" lon="-0.56304">
        <ele>18.1</ele>
      </trkpt>
      <trkpt lat="45.26226" lon="-0.56301">
        <ele>18</ele>
      </trkpt>
      <trkpt lat="45.2617" lon="-0.56221">
        <ele>17</ele>
      </trkpt>
      <trkpt lat="45.26166" lon="-0.56209">
        <ele>17</ele>
      </trkpt>
      <trkpt lat="45.26168" lon="-0.56199">
        <ele>17</ele>
      </trkpt>
      <trkpt lat="45.26171" lon="-0.56186">
        <ele>17.1</ele>
      </trkpt>
      <trkpt lat="45.26187" lon="-0.56167">
        <ele>17.5</ele>
      </trkpt>
      <trkpt lat="45.26207" lon="-0.5613">
        <ele>17.1</ele>
      </trkpt>
      <trkpt lat="45.26261" lon="-0.56042">
        <ele>16.9</ele>
      </trkpt>
      <trkpt lat="45.26283" lon="-0.56011">
        <ele>16.9</ele>
      </trkpt>
      <trkpt lat="45.26304" lon="-0.55986">
        <ele>17.3</ele>
      </trkpt>
      <trkpt lat="45.26305" lon="-0.55986">
        <ele>17.3</ele>
      </trkpt>
      <trkpt lat="45.26304" lon="-0.55986">
        <ele>17.3</ele>
      </trkpt>
      <trkpt lat="45.26304" lon="-0.55986">
        <ele>17.3</ele>
      </trkpt>
      <trkpt lat="45.26308" lon="-0.55982">
        <ele>17.4</ele>
      </trkpt>
      <trkpt lat="45.26319" lon="-0.55969">
        <ele>17.6</ele>
      </trkpt>
      <trkpt lat="45.26348" lon="-0.55942">
        <ele>18.1</ele>
      </trkpt>
      <trkpt lat="45.26372" lon="-0.55924">
        <ele>18.5</ele>
      </trkpt>
      <trkpt lat="45.26419" lon="-0.55898">
        <ele>19.6</ele>
      </trkpt>
      <trkpt lat="45.26459" lon="-0.55891">
        <ele>20.4</ele>
      </trkpt>
      <trkpt lat="45.26501" lon="-0.55891">
        <ele>21.4</ele>
      </trkpt>
      <trkpt lat="45.26531" lon="-0.55898">
        <ele>21.2</ele>
      </trkpt>
      <trkpt lat="45.26554" lon="-0.55908">
        <ele>21.1</ele>
      </trkpt>
      <trkpt lat="45.26558" lon="-0.55911">
        <ele>21.2</ele>
      </trkpt>
      <trkpt lat="45.26565" lon="-0.55883">
        <ele>20.4</ele>
      </trkpt>
      <trkpt lat="45.26592" lon="-0.55779">
        <ele>68.73</ele>
        <time>2021-06-19T08:46:57.000Z</time>
      </trkpt>
      <trkpt lat="45.26593" lon="-0.55765">
        <ele>68.22</ele>
        <time>2021-06-19T08:47:00.000Z</time>
      </trkpt>
      <trkpt lat="45.26593" lon="-0.55752">
        <ele>67.77</ele>
        <time>2021-06-19T08:47:03.000Z</time>
      </trkpt>
      <trkpt lat="45.26591" lon="-0.55737">
        <ele>66.96</ele>
        <time>2021-06-19T08:47:07.000Z</time>
      </trkpt>
      <trkpt lat="45.26593" lon="-0.55724">
        <ele>66.19</ele>
        <time>2021-06-19T08:47:10.000Z</time>
      </trkpt>
      <trkpt lat="45.26597" lon="-0.55711">
        <ele>65.62</ele>
        <time>2021-06-19T08:47:14.000Z</time>
      </trkpt>
      <trkpt lat="45.26599" lon="-0.55696">
        <ele>63.81</ele>
        <time>2021-06-19T08:47:18.000Z</time>
      </trkpt>
      <trkpt lat="45.26602" lon="-0.55683">
        <ele>63.65</ele>
        <time>2021-06-19T08:47:23.000Z</time>
      </trkpt>
      <trkpt lat="45.26601" lon="-0.55668">
        <ele>62.81</ele>
        <time>2021-06-19T08:47:29.000Z</time>
      </trkpt>
      <trkpt lat="45.26598" lon="-0.55656">
        <ele>61.94</ele>
        <time>2021-06-19T08:47:32.000Z</time>
      </trkpt>
      <trkpt lat="45.26599" lon="-0.55642">
        <ele>61.86</ele>
        <time>2021-06-19T08:47:36.000Z</time>
      </trkpt>
      <trkpt lat="45.26596" lon="-0.5563">
        <ele>60.79</ele>
        <time>2021-06-19T08:47:42.000Z</time>
      </trkpt>
      <trkpt lat="45.26586" lon="-0.55625">
        <ele>60.95</ele>
        <time>2021-06-19T08:47:47.000Z</time>
      </trkpt>
      <trkpt lat="45.26577" lon="-0.55622">
        <ele>60.4</ele>
        <time>2021-06-19T08:47:52.000Z</time>
      </trkpt>
      <trkpt lat="45.26565" lon="-0.55621">
        <ele>59.68</ele>
        <time>2021-06-19T08:47:59.000Z</time>
      </trkpt>
      <trkpt lat="45.26556" lon="-0.55624">
        <ele>59.01</ele>
        <time>2021-06-19T08:48:05.000Z</time>
      </trkpt>
      <trkpt lat="45.26565" lon="-0.55621">
        <ele>60.09</ele>
        <time>2021-06-19T08:48:17.000Z</time>
      </trkpt>
      <trkpt lat="45.26556" lon="-0.55624">
        <ele>59.25</ele>
        <time>2021-06-19T08:48:39.000Z</time>
      </trkpt>
      <trkpt lat="45.26547" lon="-0.55627">
        <ele>60.95</ele>
        <time>2021-06-19T08:48:43.000Z</time>
      </trkpt>
      <trkpt lat="45.26538" lon="-0.55631">
        <ele>60.48</ele>
        <time>2021-06-19T08:48:49.000Z</time>
      </trkpt>
      <trkpt lat="45.26532" lon="-0.5562">
        <ele>58.18</ele>
        <time>2021-06-19T08:48:57.000Z</time>
      </trkpt>
      <trkpt lat="45.26535" lon="-0.55608">
        <ele>57.82</ele>
        <time>2021-06-19T08:49:06.000Z</time>
      </trkpt>
      <trkpt lat="45.26537" lon="-0.55594">
        <ele>58.17</ele>
        <time>2021-06-19T08:51:04.000Z</time>
      </trkpt>
      <trkpt lat="45.26538" lon="-0.5558">
        <ele>57.61</ele>
        <time>2021-06-19T08:51:10.000Z</time>
      </trkpt>
      <trkpt lat="45.26538" lon="-0.55568">
        <ele>58.02</ele>
        <time>2021-06-19T08:51:56.000Z</time>
      </trkpt>
      <trkpt lat="45.26534" lon="-0.55556">
        <ele>53.86</ele>
        <time>2021-06-19T08:55:59.000Z</time>
      </trkpt>
      <trkpt lat="45.26532" lon="-0.5555">
        <ele>55.8</ele>
        <time>2021-06-19T09:28:59.000Z</time>
      </trkpt>
      <trkpt lat="45.26527" lon="-0.55538">
        <ele>59.91</ele>
        <time>2021-06-19T09:29:45.000Z</time>
      </trkpt>
      <trkpt lat="45.26518" lon="-0.55536">
        <ele>59.51</ele>
        <time>2021-06-19T09:30:16.000Z</time>
      </trkpt>
      <trkpt lat="45.26508" lon="-0.55536">
        <ele>58.37</ele>
        <time>2021-06-19T09:30:40.000Z</time>
      </trkpt>
      <trkpt lat="45.26503" lon="-0.55525">
        <ele>59.07</ele>
        <time>2021-06-19T09:30:52.000Z</time>
      </trkpt>
      <trkpt lat="45.26494" lon="-0.55523">
        <ele>55.8</ele>
        <time>2021-06-19T09:31:15.000Z</time>
      </trkpt>
      <trkpt lat="45.26485" lon="-0.55518">
        <ele>56.4</ele>
        <time>2021-06-19T09:31:25.000Z</time>
      </trkpt>
      <trkpt lat="45.26483" lon="-0.55505">
        <ele>56.8</ele>
        <time>2021-06-19T09:31:39.000Z</time>
      </trkpt>
      <trkpt lat="45.26477" lon="-0.55496">
        <ele>57.36</ele>
        <time>2021-06-19T09:33:39.000Z</time>
      </trkpt>
      <trkpt lat="45.26478" lon="-0.55482">
        <ele>56.65</ele>
        <time>2021-06-19T09:33:44.000Z</time>
      </trkpt>
      <trkpt lat="45.26479" lon="-0.55468">
        <ele>55.51</ele>
        <time>2021-06-19T09:33:51.000Z</time>
      </trkpt>
      <trkpt lat="45.2648" lon="-0.55454">
        <ele>54.6</ele>
        <time>2021-06-19T09:33:57.000Z</time>
      </trkpt>
      <trkpt lat="45.26479" lon="-0.55439">
        <ele>56.12</ele>
        <time>2021-06-19T09:34:04.000Z</time>
      </trkpt>
      <trkpt lat="45.26478" lon="-0.55425">
        <ele>58.49</ele>
        <time>2021-06-19T09:34:12.000Z</time>
      </trkpt>
      <trkpt lat="45.2648" lon="-0.55412">
        <ele>57.65</ele>
        <time>2021-06-19T09:34:22.000Z</time>
      </trkpt>
      <trkpt lat="45.26489" lon="-0.55411">
        <ele>56.72</ele>
        <time>2021-06-19T09:34:30.000Z</time>
      </trkpt>
      <trkpt lat="45.26499" lon="-0.55408">
        <ele>56.95</ele>
        <time>2021-06-19T09:34:39.000Z</time>
      </trkpt>
      <trkpt lat="45.26509" lon="-0.55407">
        <ele>56.68</ele>
        <time>2021-06-19T09:34:48.000Z</time>
      </trkpt>
      <trkpt lat="45.26518" lon="-0.55406">
        <ele>56.09</ele>
        <time>2021-06-19T09:35:07.000Z</time>
      </trkpt>
      <trkpt lat="45.26526" lon="-0.55399">
        <ele>57.47</ele>
        <time>2021-06-19T09:35:17.000Z</time>
      </trkpt>
      <trkpt lat="45.26534" lon="-0.55392">
        <ele>57.51</ele>
        <time>2021-06-19T09:35:27.000Z</time>
      </trkpt>
      <trkpt lat="45.2654" lon="-0.55357">
        <ele>11.9</ele>
      </trkpt>
      <trkpt lat="45.26544" lon="-0.55375">
        <ele>12.3</ele>
      </trkpt>
      <trkpt lat="45.26544" lon="-0.55375">
        <ele>12.3</ele>
      </trkpt>
      <trkpt lat="45.26544" lon="-0.55375">
        <ele>12.3</ele>
      </trkpt>
      <trkpt lat="45.26544" lon="-0.55375">
        <ele>12.3</ele>
      </trkpt>
      <trkpt lat="45.26544" lon="-0.55375">
        <ele>12.3</ele>
      </trkpt>
      <trkpt lat="45.26556" lon="-0.55398">
        <ele>13</ele>
      </trkpt>
      <trkpt lat="45.26576" lon="-0.55433">
        <ele>13.8</ele>
      </trkpt>
      <trkpt lat="45.26584" lon="-0.55443">
        <ele>14</ele>
      </trkpt>
      <trkpt lat="45.26594" lon="-0.55451">
        <ele>14.5</ele>
      </trkpt>
      <trkpt lat="45.26626" lon="-0.55478">
        <ele>16</ele>
      </trkpt>
      <trkpt lat="45.26644" lon="-0.5549">
        <ele>16.9</ele>
      </trkpt>
      <trkpt lat="45.26677" lon="-0.55507">
        <ele>18.1</ele>
      </trkpt>
      <trkpt lat="45.26712" lon="-0.5552">
        <ele>19</ele>
      </trkpt>
      <trkpt lat="45.26727" lon="-0.55526">
        <ele>19.5</ele>
      </trkpt>
      <trkpt lat="45.26743" lon="-0.55532">
        <ele>19.9</ele>
      </trkpt>
      <trkpt lat="45.26773" lon="-0.5555">
        <ele>20.4</ele>
      </trkpt>
      <trkpt lat="45.26783" lon="-0.55556">
        <ele>20.6</ele>
      </trkpt>
      <trkpt lat="45.26818" lon="-0.55582">
        <ele>21.5</ele>
      </trkpt>
      <trkpt lat="45.26849" lon="-0.55613">
        <ele>21.2</ele>
      </trkpt>
      <trkpt lat="45.26874" lon="-0.55641">
        <ele>21.2</ele>
      </trkpt>
      <trkpt lat="45.26869" lon="-0.55655">
        <ele>20.5</ele>
      </trkpt>
      <trkpt lat="45.26873" lon="-0.55659">
        <ele>20.6</ele>
      </trkpt>
      <trkpt lat="45.26916" lon="-0.55729">
        <ele>21.5</ele>
      </trkpt>
      <trkpt lat="45.26946" lon="-0.55763">
        <ele>21.3</ele>
      </trkpt>
      <trkpt lat="45.26973" lon="-0.55795">
        <ele>20.9</ele>
      </trkpt>
      <trkpt lat="45.27041" lon="-0.55853">
        <ele>21.6</ele>
      </trkpt>
      <trkpt lat="45.27063" lon="-0.55874">
        <ele>22.2</ele>
      </trkpt>
      <trkpt lat="45.27093" lon="-0.55908">
        <ele>22.3</ele>
      </trkpt>
      <trkpt lat="45.27096" lon="-0.55911">
        <ele>22.3</ele>
      </trkpt>
      <trkpt lat="45.27121" lon="-0.55946">
        <ele>21.6</ele>
      </trkpt>
      <trkpt lat="45.27144" lon="-0.55969">
        <ele>21.3</ele>
      </trkpt>
      <trkpt lat="45.27159" lon="-0.55972">
        <ele>21.5</ele>
      </trkpt>
      <trkpt lat="45.2716" lon="-0.55971">
        <ele>21.6</ele>
      </trkpt>
      <trkpt lat="45.27173" lon="-0.55961">
        <ele>21.9</ele>
      </trkpt>
      <trkpt lat="45.27152" lon="-0.56041">
        <ele>19.4</ele>
      </trkpt>
      <trkpt lat="45.27143" lon="-0.56082">
        <ele>18.3</ele>
      </trkpt>
      <trkpt lat="45.27127" lon="-0.56097">
        <ele>18.8</ele>
      </trkpt>
      <trkpt lat="45.27029" lon="-0.56107">
        <ele>20.4</ele>
      </trkpt>
      <trkpt lat="45.27004" lon="-0.56107">
        <ele>20.8</ele>
      </trkpt>
      <trkpt lat="45.26996" lon="-0.56107">
        <ele>21</ele>
      </trkpt>
      <trkpt lat="45.26982" lon="-0.56108">
        <ele>21.5</ele>
      </trkpt>
      <trkpt lat="45.26974" lon="-0.56123">
        <ele>22.2</ele>
      </trkpt>
      <trkpt lat="45.26965" lon="-0.56154">
        <ele>23.4</ele>
      </trkpt>
      <trkpt lat="45.26958" lon="-0.56179">
        <ele>23.9</ele>
      </trkpt>
      <trkpt lat="45.26955" lon="-0.56193">
        <ele>23.9</ele>
      </trkpt>
      <trkpt lat="45.26952" lon="-0.56191">
        <ele>24</ele>
      </trkpt>
      <trkpt lat="45.26947" lon="-0.56188">
        <ele>24.1</ele>
      </trkpt>
      <trkpt lat="45.26922" lon="-0.5617">
        <ele>24.8</ele>
      </trkpt>
      <trkpt lat="45.26914" lon="-0.56164">
        <ele>24.9</ele>
      </trkpt>
      <trkpt lat="45.26875" lon="-0.56138">
        <ele>24.7</ele>
      </trkpt>
      <trkpt lat="45.26852" lon="-0.56122">
        <ele>24.8</ele>
      </trkpt>
      <trkpt lat="45.26848" lon="-0.56133">
        <ele>24.9</ele>
      </trkpt>
      <trkpt lat="45.26839" lon="-0.56163">
        <ele>25</ele>
      </trkpt>
      <trkpt lat="45.26827" lon="-0.56176">
        <ele>24.9</ele>
      </trkpt>
      <trkpt lat="45.26819" lon="-0.56183">
        <ele>24.8</ele>
      </trkpt>
      <trkpt lat="45.26817" lon="-0.56191">
        <ele>24.8</ele>
      </trkpt>
      <trkpt lat="45.26815" lon="-0.56208">
        <ele>24.8</ele>
      </trkpt>
      <trkpt lat="45.26811" lon="-0.56215">
        <ele>24.7</ele>
      </trkpt>
      <trkpt lat="45.26767" lon="-0.56328">
        <ele>26.1</ele>
      </trkpt>
      <trkpt lat="45.26757" lon="-0.56346">
        <ele>26.2</ele>
      </trkpt>
      <trkpt lat="45.26761" lon="-0.56362">
        <ele>26.4</ele>
      </trkpt>
      <trkpt lat="45.26755" lon="-0.56382">
        <ele>26.6</ele>
      </trkpt>
      <trkpt lat="45.26747" lon="-0.56393">
        <ele>26.7</ele>
      </trkpt>
      <trkpt lat="45.26745" lon="-0.56423">
        <ele>27.1</ele>
      </trkpt>
      <trkpt lat="45.26747" lon="-0.56462">
        <ele>28.1</ele>
      </trkpt>
      <trkpt lat="45.26749" lon="-0.56487">
        <ele>28.7</ele>
      </trkpt>
      <trkpt lat="45.26794" lon="-0.56516">
        <ele>29.6</ele>
      </trkpt>
      <trkpt lat="45.26855" lon="-0.56553">
        <ele>29.6</ele>
      </trkpt>
      <trkpt lat="45.26922" lon="-0.56619">
        <ele>29.4</ele>
      </trkpt>
      <trkpt lat="45.2696" lon="-0.56656">
        <ele>29.4</ele>
      </trkpt>
      <trkpt lat="45.26983" lon="-0.56683">
        <ele>29.5</ele>
      </trkpt>
      <trkpt lat="45.2699" lon="-0.56708">
        <ele>30</ele>
      </trkpt>
      <trkpt lat="45.26989" lon="-0.56735">
        <ele>30.6</ele>
      </trkpt>
      <trkpt lat="45.26991" lon="-0.56763">
        <ele>31.2</ele>
      </trkpt>
      <trkpt lat="45.26993" lon="-0.56769">
        <ele>31.4</ele>
      </trkpt>
      <trkpt lat="45.26998" lon="-0.56788">
        <ele>31.9</ele>
      </trkpt>
      <trkpt lat="45.27002" lon="-0.56799">
        <ele>32.2</ele>
      </trkpt>
      <trkpt lat="45.27011" lon="-0.56819">
        <ele>32.7</ele>
      </trkpt>
      <trkpt lat="45.27019" lon="-0.5686">
        <ele>33.1</ele>
      </trkpt>
      <trkpt lat="45.27033" lon="-0.5691">
        <ele>33.4</ele>
      </trkpt>
      <trkpt lat="45.27052" lon="-0.56962">
        <ele>33.6</ele>
      </trkpt>
      <trkpt lat="45.27083" lon="-0.57016">
        <ele>34</ele>
      </trkpt>
      <trkpt lat="45.27084" lon="-0.57017">
        <ele>34</ele>
      </trkpt>
      <trkpt lat="45.27093" lon="-0.57035">
        <ele>34.1</ele>
      </trkpt>
      <trkpt lat="45.27098" lon="-0.57051">
        <ele>34.1</ele>
      </trkpt>
      <trkpt lat="45.27114" lon="-0.57148">
        <ele>34.3</ele>
      </trkpt>
      <trkpt lat="45.27128" lon="-0.57188">
        <ele>33.9</ele>
      </trkpt>
      <trkpt lat="45.27133" lon="-0.57197">
        <ele>33.7</ele>
      </trkpt>
      <trkpt lat="45.2716" lon="-0.57239">
        <ele>33.1</ele>
      </trkpt>
      <trkpt lat="45.27188" lon="-0.57288">
        <ele>31.6</ele>
      </trkpt>
      <trkpt lat="45.27207" lon="-0.57322">
        <ele>30.7</ele>
      </trkpt>
      <trkpt lat="45.2721" lon="-0.57327">
        <ele>30.6</ele>
      </trkpt>
      <trkpt lat="45.27238" lon="-0.57378">
        <ele>29</ele>
      </trkpt>
      <trkpt lat="45.27252" lon="-0.5739">
        <ele>28.6</ele>
      </trkpt>
      <trkpt lat="45.27292" lon="-0.57411">
        <ele>27.6</ele>
      </trkpt>
      <trkpt lat="45.27348" lon="-0.57448">
        <ele>27.3</ele>
      </trkpt>
      <trkpt lat="45.27359" lon="-0.57459">
        <ele>27.5</ele>
      </trkpt>
      <trkpt lat="45.27366" lon="-0.57477">
        <ele>27.5</ele>
      </trkpt>
      <trkpt lat="45.27364" lon="-0.57495">
        <ele>27.4</ele>
      </trkpt>
      <trkpt lat="45.27355" lon="-0.57536">
        <ele>26.7</ele>
      </trkpt>
      <trkpt lat="45.27355" lon="-0.57558">
        <ele>26.4</ele>
      </trkpt>
      <trkpt lat="45.2736" lon="-0.57603">
        <ele>26.2</ele>
      </trkpt>
      <trkpt lat="45.27366" lon="-0.57673">
        <ele>26.9</ele>
      </trkpt>
      <trkpt lat="45.27374" lon="-0.57825">
        <ele>25.1</ele>
      </trkpt>
      <trkpt lat="45.27377" lon="-0.5783">
        <ele>25</ele>
      </trkpt>
      <trkpt lat="45.27377" lon="-0.5783">
        <ele>25</ele>
      </trkpt>
      <trkpt lat="45.27336" lon="-0.5786">
        <ele>25</ele>
      </trkpt>
      <trkpt lat="45.27325" lon="-0.57864">
        <ele>25.1</ele>
      </trkpt>
      <trkpt lat="45.27314" lon="-0.57861">
        <ele>25.2</ele>
      </trkpt>
      <trkpt lat="45.27235" lon="-0.57792">
        <ele>26.2</ele>
      </trkpt>
      <trkpt lat="45.27226" lon="-0.57787">
        <ele>26.1</ele>
      </trkpt>
      <trkpt lat="45.27217" lon="-0.57787">
        <ele>25.9</ele>
      </trkpt>
      <trkpt lat="45.27208" lon="-0.57795">
        <ele>25.8</ele>
      </trkpt>
      <trkpt lat="45.27157" lon="-0.57867">
        <ele>25.5</ele>
      </trkpt>
      <trkpt lat="45.27151" lon="-0.57869">
        <ele>25.5</ele>
      </trkpt>
      <trkpt lat="45.27139" lon="-0.57864">
        <ele>25.4</ele>
      </trkpt>
      <trkpt lat="45.26916" lon="-0.57699">
        <ele>26.4</ele>
      </trkpt>
      <trkpt lat="45.2691" lon="-0.577">
        <ele>26.4</ele>
      </trkpt>
      <trkpt lat="45.2691" lon="-0.57699">
        <ele>26.4</ele>
      </trkpt>
      <trkpt lat="45.2691" lon="-0.577">
        <ele>26.4</ele>
      </trkpt>
      <trkpt lat="45.26925" lon="-0.57762">
        <ele>27</ele>
      </trkpt>
      <trkpt lat="45.2696" lon="-0.57954">
        <ele>24.3</ele>
      </trkpt>
      <trkpt lat="45.26969" lon="-0.57994">
        <ele>24</ele>
      </trkpt>
      <trkpt lat="45.26978" lon="-0.58022">
        <ele>24</ele>
      </trkpt>
      <trkpt lat="45.27025" lon="-0.58133">
        <ele>24.1</ele>
      </trkpt>
      <trkpt lat="45.27041" lon="-0.58175">
        <ele>23.9</ele>
      </trkpt>
      <trkpt lat="45.27051" lon="-0.58211">
        <ele>23.8</ele>
      </trkpt>
      <trkpt lat="45.27058" lon="-0.58249">
        <ele>23.7</ele>
      </trkpt>
      <trkpt lat="45.2706" lon="-0.5826">
        <ele>23.6</ele>
      </trkpt>
      <trkpt lat="45.2706" lon="-0.58278">
        <ele>23.4</ele>
      </trkpt>
      <trkpt lat="45.27059" lon="-0.583">
        <ele>23.1</ele>
      </trkpt>
      <trkpt lat="45.27041" lon="-0.58414">
        <ele>23.5</ele>
      </trkpt>
      <trkpt lat="45.2704" lon="-0.58439">
        <ele>23.2</ele>
      </trkpt>
      <trkpt lat="45.27041" lon="-0.58462">
        <ele>23</ele>
      </trkpt>
      <trkpt lat="45.27047" lon="-0.58526">
        <ele>21.6</ele>
      </trkpt>
      <trkpt lat="45.27058" lon="-0.58603">
        <ele>19.7</ele>
      </trkpt>
      <trkpt lat="45.27059" lon="-0.58625">
        <ele>19.7</ele>
      </trkpt>
      <trkpt lat="45.27058" lon="-0.58643">
        <ele>19.7</ele>
      </trkpt>
      <trkpt lat="45.27056" lon="-0.58661">
        <ele>19.7</ele>
      </trkpt>
      <trkpt lat="45.27019" lon="-0.58789">
        <ele>19.8</ele>
      </trkpt>
      <trkpt lat="45.27016" lon="-0.58794">
        <ele>19.8</ele>
      </trkpt>
      <trkpt lat="45.27032" lon="-0.58829">
        <ele>19.6</ele>
      </trkpt>
      <trkpt lat="45.27046" lon="-0.58867">
        <ele>19.1</ele>
      </trkpt>
      <trkpt lat="45.27075" lon="-0.58963">
        <ele>18.4</ele>
      </trkpt>
      <trkpt lat="45.2709" lon="-0.5899">
        <ele>18.2</ele>
      </trkpt>
      <trkpt lat="45.27094" lon="-0.58995">
        <ele>18.2</ele>
      </trkpt>
      <trkpt lat="45.27083" lon="-0.59014">
        <ele>18</ele>
      </trkpt>
      <trkpt lat="45.2707" lon="-0.59034">
        <ele>18.1</ele>
      </trkpt>
      <trkpt lat="45.2706" lon="-0.59042">
        <ele>18.1</ele>
      </trkpt>
    </trkseg>
  </trk>
  <trk>
    <name><![CDATA[Limite de St-Aubin avec St-Ciers]]></name>
    <extensions>
      <line xmlns="http://www.topografix.com/GPX/gpx_style/0/2">
        <color>f20e02</color>
        <width>4</width>
      </line>
    </extensions>
    <trkseg>
      <trkpt lat="45.27599" lon="-0.58071">
        <ele>25.9</ele>
      </trkpt>
      <trkpt lat="45.27599" lon="-0.58071">
        <ele>25.9</ele>
      </trkpt>
      <trkpt lat="45.27599" lon="-0.58071">
        <ele>25.9</ele>
      </trkpt>
      <trkpt lat="45.27599" lon="-0.58071">
        <ele>25.9</ele>
      </trkpt>
      <trkpt lat="45.27585" lon="-0.58162">
        <ele>25.1</ele>
      </trkpt>
      <trkpt lat="45.27555" lon="-0.58238">
        <ele>26.8</ele>
      </trkpt>
      <trkpt lat="45.27526" lon="-0.58297">
        <ele>27.6</ele>
      </trkpt>
      <trkpt lat="45.27514" lon="-0.58297">
        <ele>27.8</ele>
      </trkpt>
      <trkpt lat="45.27467" lon="-0.5835">
        <ele>27.8</ele>
      </trkpt>
      <trkpt lat="45.27408" lon="-0.58381">
        <ele>26.2</ele>
      </trkpt>
      <trkpt lat="45.27375" lon="-0.5838">
        <ele>25.5</ele>
      </trkpt>
      <trkpt lat="45.27349" lon="-0.58414">
        <ele>25.2</ele>
      </trkpt>
      <trkpt lat="45.27342" lon="-0.58451">
        <ele>24.7</ele>
      </trkpt>
      <trkpt lat="45.27325" lon="-0.58487">
        <ele>24</ele>
      </trkpt>
      <trkpt lat="45.27283" lon="-0.58519">
        <ele>23.3</ele>
      </trkpt>
      <trkpt lat="45.27255" lon="-0.58529">
        <ele>22.8</ele>
      </trkpt>
      <trkpt lat="45.27229" lon="-0.58548">
        <ele>22.7</ele>
      </trkpt>
      <trkpt lat="45.27212" lon="-0.58576">
        <ele>22.6</ele>
      </trkpt>
      <trkpt lat="45.27206" lon="-0.5859">
        <ele>22.4</ele>
      </trkpt>
      <trkpt lat="45.27193" lon="-0.5859">
        <ele>22.6</ele>
      </trkpt>
      <trkpt lat="45.27184" lon="-0.58626">
        <ele>22</ele>
      </trkpt>
      <trkpt lat="45.27173" lon="-0.58717">
        <ele>22.2</ele>
      </trkpt>
      <trkpt lat="45.27169" lon="-0.5876">
        <ele>22.8</ele>
      </trkpt>
      <trkpt lat="45.27143" lon="-0.58818">
        <ele>21.3</ele>
      </trkpt>
      <trkpt lat="45.27137" lon="-0.58855">
        <ele>20.6</ele>
      </trkpt>
      <trkpt lat="45.27118" lon="-0.58895">
        <ele>19.6</ele>
      </trkpt>
      <trkpt lat="45.27102" lon="-0.58929">
        <ele>19.1</ele>
      </trkpt>
      <trkpt lat="45.27088" lon="-0.58953">
        <ele>18.6</ele>
      </trkpt>
      <trkpt lat="45.27083" lon="-0.58966">
        <ele>18.4</ele>
      </trkpt>
      <trkpt lat="45.27066" lon="-0.58974">
        <ele>18.2</ele>
      </trkpt>
      <trkpt lat="45.27038" lon="-0.58991">
        <ele>18</ele>
      </trkpt>
      <trkpt lat="45.27043" lon="-0.59017">
        <ele>18.1</ele>
      </trkpt>
      <trkpt lat="45.27053" lon="-0.59047">
        <ele>18.2</ele>
      </trkpt>
    </trkseg>
  </trk>
</gpx>